TimeCST,TemperatureF,Dew PointF,Humidity,Sea Level PressureIn,VisibilityMPH,Wind Direction,Wind SpeedMPH,Gust SpeedMPH,PrecipitationIn,Events,Conditions,WindDirDegrees,DateUTC
12:53 AM,66.9,64.9,93,30.02,-9999.0,Calm,Calm,-,N/A,,Overcast,0,2011-11-09 06:53:00
1:11 AM,66.2,66.2,100,30.03,-9999.0,Calm,Calm,-,0.00,Rain,Light Rain,0,2011-11-09 07:11:00
1:27 AM,66.2,66.2,100,30.03,-9999.0,Calm,Calm,-,0.00,,Overcast,0,2011-11-09 07:27:00
1:53 AM,66.9,66.0,97,30.04,-9999.0,WSW,6.9,-,0.14,Rain,Heavy Rain,250,2011-11-09 07:53:00
2:12 AM,66.2,66.2,100,30.05,-9999.0,Calm,Calm,-,0.19,Rain,Heavy Rain,0,2011-11-09 08:12:00
2:37 AM,66.2,66.2,100,30.03,-9999.0,SSE,4.6,-,0.28,Rain,Rain,150,2011-11-09 08:37:00
2:53 AM,66.9,66.0,97,29.99,-9999.0,SE,8.1,-,0.31,Rain,Rain,130,2011-11-09 08:53:00
3:31 AM,66.2,66.2,100,29.99,-9999.0,SSE,15.0,-,0.05,Rain,Light Rain,160,2011-11-09 09:31:00
3:53 AM,66.9,66.0,97,30.00,-9999.0,South,9.2,-,0.05,,Overcast,190,2011-11-09 09:53:00
4:49 AM,66.2,66.2,100,30.02,-9999.0,WSW,3.5,-,0.13,Rain,Light Rain,250,2011-11-09 10:49:00
5:12 AM,66.2,66.2,100,30.03,-9999.0,West,3.5,-,0.02,Rain,Light Rain,270,2011-11-09 11:12:00
5:19 AM,66.2,64.4,94,30.03,-9999.0,Calm,Calm,-,0.02,Rain,Light Rain,0,2011-11-09 11:19:00
5:26 AM,66.2,64.4,94,30.04,-9999.0,WSW,4.6,-,0.02,Rain,Light Rain,250,2011-11-09 11:26:00
5:33 AM,66.2,64.4,94,30.04,-9999.0,Calm,Calm,-,0.02,,Overcast,0,2011-11-09 11:33:00
5:45 AM,66.2,64.4,94,30.05,-9999.0,WNW,9.2,-,0.02,,Overcast,290,2011-11-09 11:45:00
6:20 AM,62.6,62.6,100,30.06,-9999.0,NNW,10.4,-,0.00,,Overcast,330,2011-11-09 12:20:00
6:43 AM,62.6,57.2,82,30.06,-9999.0,NNW,9.2,-,0.00,,Overcast,340,2011-11-09 12:43:00
6:53 AM,61.0,57.0,87,30.06,-9999.0,NNW,8.1,-,0.00,,Overcast,340,2011-11-09 12:53:00
7:39 AM,60.8,57.2,88,30.09,-9999.0,NNW,8.1,-,N/A,,Overcast,340,2011-11-09 13:39:00
8:53 AM,62.1,57.0,84,30.08,-9999.0,NNW,11.5,-,N/A,,Overcast,340,2011-11-09 14:53:00
10:53 AM,66.0,51.1,59,30.09,-9999.0,North,-9999.0,-,N/A,,Overcast,0,2011-11-09 16:53:00
11:53 AM,68.0,51.1,55,30.08,-9999.0,North,-9999.0,-,N/A,,Overcast,0,2011-11-09 17:53:00
1:53 PM,70.0,46.9,44,30.04,-9999.0,North,12.7,-,N/A,,Unknown,350,2011-11-09 19:53:00
2:53 PM,69.1,46.0,44,30.04,-9999.0,NW,13.8,-,N/A,,Clear,320,2011-11-09 20:53:00
3:53 PM,66.0,46.9,50,30.06,-9999.0,NNW,17.3,23.0,N/A,,Clear,340,2011-11-09 21:53:00
4:53 PM,60.1,46.9,62,30.09,-9999.0,NNW,16.1,25.3,N/A,,Clear,340,2011-11-09 22:53:00
5:53 PM,54.0,45.0,72,30.12,-9999.0,NNW,16.1,24.2,N/A,,Clear,340,2011-11-09 23:53:00
6:53 PM,53.1,45.0,74,30.14,-9999.0,NNW,9.2,-,N/A,,Clear,340,2011-11-10 00:53:00
7:53 PM,52.0,45.0,77,30.14,-9999.0,NNW,6.9,-,N/A,,Clear,340,2011-11-10 01:53:00
8:53 PM,50.0,45.0,83,30.16,-9999.0,NNW,8.1,-,N/A,,Clear,330,2011-11-10 02:53:00
9:53 PM,51.1,44.1,77,30.18,-9999.0,NNW,9.2,-,N/A,,Clear,340,2011-11-10 03:53:00
10:53 PM,51.1,42.1,71,30.19,-9999.0,North,12.7,-,N/A,,Clear,350,2011-11-10 04:53:00
11:53 PM,50.0,41.0,71,30.19,-9999.0,North,11.5,23.0,N/A,,Clear,350,2011-11-10 05:53:00